Time,TemperatureF,DewpointF,PressureIn,WindDirection,WindDirectionDegrees,WindSpeedMPH,WindSpeedGustMPH,Humidity,HourlyPrecipIn,Conditions,Clouds,dailyrainin,SoftwareType,DateUTC
2013-01-18 00:14:00,36.3,33.0,30.35,North,5,5.0,-999.0,89,-99.99,,,0.00,weatherlink.com 1.10,2013-01-18 05:14:00,
2013-01-18 00:29:00,36.2,33.0,30.36,NNE,26,8.0,-999.0,89,-99.99,,,0.00,weatherlink.com 1.10,2013-01-18 05:29:00,
2013-01-18 00:44:00,36.1,33.0,30.36,NE,38,9.0,-999.0,89,-99.99,,,0.00,weatherlink.com 1.10,2013-01-18 05:44:00,
2013-01-18 00:59:00,36.5,34.0,30.36,NNE,13,9.0,-999.0,89,-99.99,,,0.00,weatherlink.com 1.10,2013-01-18 05:59:00,
2013-01-18 01:14:00,36.3,33.0,30.36,NNE,32,13.0,-999.0,89,-99.99,,,0.00,weatherlink.com 1.10,2013-01-18 06:14:00,
2013-01-18 01:29:00,36.2,33.0,30.37,NNE,25,6.0,-999.0,89,-99.99,,,0.00,weatherlink.com 1.10,2013-01-18 06:29:00,
2013-01-18 01:44:00,36.1,33.0,30.37,NNE,33,8.0,-999.0,89,-99.99,,,0.00,weatherlink.com 1.10,2013-01-18 06:44:00,
2013-01-18 01:59:00,35.9,33.0,30.37,NNE,31,5.0,-999.0,89,-99.99,,,0.00,weatherlink.com 1.10,2013-01-18 06:59:00,
2013-01-18 02:15:00,35.6,33.0,30.38,NNE,26,6.0,-999.0,90,-99.99,,,0.00,weatherlink.com 1.10,2013-01-18 07:15:00,
2013-01-18 02:30:00,35.3,33.0,30.38,NNE,19,11.0,-999.0,90,-99.99,,,0.00,weatherlink.com 1.10,2013-01-18 07:30:00,
2013-01-18 02:45:00,35.2,33.0,30.38,North,5,8.0,-999.0,90,-99.99,,,0.00,weatherlink.com 1.10,2013-01-18 07:45:00,
2013-01-18 03:00:00,34.8,32.0,30.39,NNE,26,7.0,-999.0,90,-99.99,,,0.00,weatherlink.com 1.10,2013-01-18 08:00:00,
2013-01-18 03:15:00,34.5,32.0,30.39,NE,37,3.0,-999.0,91,-99.99,,,0.00,weatherlink.com 1.10,2013-01-18 08:15:00,
2013-01-18 03:30:00,34.1,32.0,30.39,NNE,15,5.0,-999.0,91,-99.99,,,0.00,weatherlink.com 1.10,2013-01-18 08:30:00,
2013-01-18 03:45:00,33.8,32.0,30.39,NNE,28,5.0,-999.0,91,-99.99,,,0.00,weatherlink.com 1.10,2013-01-18 08:45:00,
2013-01-18 04:00:00,33.3,31.0,30.38,NNE,18,2.0,-999.0,92,-99.99,,,0.00,weatherlink.com 1.10,2013-01-18 09:00:00,
2013-01-18 04:15:00,33.0,31.0,30.38,NE,34,1.0,-999.0,92,-99.99,,,0.00,weatherlink.com 1.10,2013-01-18 09:15:00,
2013-01-18 04:30:00,32.8,31.0,30.39,NE,34,2.0,-999.0,92,-99.99,,,0.00,weatherlink.com 1.10,2013-01-18 09:30:00,
2013-01-18 04:45:00,32.4,31.0,30.40,NNE,16,2.0,-999.0,93,-99.99,,,0.00,weatherlink.com 1.10,2013-01-18 09:45:00,
2013-01-18 05:00:00,32.1,30.0,30.39,North,5,4.0,-999.0,93,-99.99,,,0.00,weatherlink.com 1.10,2013-01-18 10:00:00,
2013-01-18 05:15:00,31.7,30.0,30.39,NNE,18,4.0,-999.0,93,-99.99,,,0.00,weatherlink.com 1.10,2013-01-18 10:15:00,
2013-01-18 05:30:00,31.7,30.0,30.39,NNE,32,5.0,-999.0,93,-99.99,,,0.00,weatherlink.com 1.10,2013-01-18 10:30:00,
2013-01-18 05:45:00,31.6,30.0,30.40,NNE,30,7.0,-999.0,93,-99.99,,,0.00,weatherlink.com 1.10,2013-01-18 10:45:00,
2013-01-18 06:00:00,31.4,30.0,30.41,NNE,15,5.0,-999.0,93,-99.99,,,0.00,weatherlink.com 1.10,2013-01-18 11:00:00,
2013-01-18 06:15:00,31.2,29.0,30.42,North,360,0.0,-999.0,93,-99.99,,,0.00,weatherlink.com 1.10,2013-01-18 11:15:00,
2013-01-18 06:30:00,30.7,29.0,30.42,North,360,0.0,-999.0,93,-99.99,,,0.00,weatherlink.com 1.10,2013-01-18 11:30:00,
2013-01-18 06:45:00,30.3,29.0,30.43,North,360,0.0,-999.0,93,-99.99,,,0.00,weatherlink.com 1.10,2013-01-18 11:45:00,
2013-01-18 07:00:00,30.4,29.0,30.44,North,360,0.0,-999.0,93,-99.99,,,0.00,weatherlink.com 1.10,2013-01-18 12:00:00,
2013-01-18 07:15:00,30.4,29.0,30.45,North,360,0.0,-999.0,93,-99.99,,,0.00,weatherlink.com 1.10,2013-01-18 12:15:00,
2013-01-18 07:30:00,29.7,28.0,30.45,North,360,0.0,-999.0,93,-99.99,,,0.00,weatherlink.com 1.10,2013-01-18 12:30:00,
2013-01-18 07:45:00,29.9,28.0,30.46,North,360,0.0,-999.0,93,-99.99,,,0.00,weatherlink.com 1.10,2013-01-18 12:45:00,
2013-01-18 08:03:00,29.2,28.0,30.46,NW,319,0.0,-999.0,93,-99.99,,,0.00,weatherlink.com 1.10,2013-01-18 13:03:00,
2013-01-18 08:15:00,29.2,28.0,30.47,NW,319,0.0,-999.0,93,-99.99,,,0.00,weatherlink.com 1.10,2013-01-18 13:15:00,
2013-01-18 08:30:00,29.4,28.0,30.47,NW,319,1.0,-999.0,93,-99.99,,,0.00,weatherlink.com 1.10,2013-01-18 13:30:00,
2013-01-18 08:45:00,29.7,28.0,30.48,NW,319,0.0,-999.0,93,-99.99,,,0.00,weatherlink.com 1.10,2013-01-18 13:45:00,
2013-01-18 09:00:00,30.0,28.0,30.49,NW,319,4.0,-999.0,92,-99.99,,,0.00,weatherlink.com 1.10,2013-01-18 14:00:00,
2013-01-18 09:15:00,30.6,29.0,30.50,NW,319,2.0,-999.0,93,-99.99,,,0.00,weatherlink.com 1.10,2013-01-18 14:15:00,
2013-01-18 09:30:00,31.1,29.0,30.51,NW,321,2.0,-999.0,93,-99.99,,,0.00,weatherlink.com 1.10,2013-01-18 14:30:00,
2013-01-18 09:45:00,31.4,30.0,30.53,NW,325,6.0,-999.0,93,-99.99,,,0.00,weatherlink.com 1.10,2013-01-18 14:45:00,
2013-01-18 10:01:00,31.4,30.0,30.54,NNW,340,5.0,-999.0,93,-99.99,,,0.01,weatherlink.com 1.10,2013-01-18 15:01:00,
2013-01-18 10:16:00,31.6,30.0,30.54,NNW,346,3.0,-999.0,93,-99.99,,,0.01,weatherlink.com 1.10,2013-01-18 15:16:00,
2013-01-18 10:31:00,31.7,30.0,30.55,NNW,332,3.0,-999.0,93,-99.99,,,0.01,weatherlink.com 1.10,2013-01-18 15:31:00,
2013-01-18 10:46:00,33.2,31.0,30.55,North,5,2.0,-999.0,93,-99.99,,,0.01,weatherlink.com 1.10,2013-01-18 15:46:00,
2013-01-18 11:01:00,34.2,32.0,30.55,NNW,338,0.0,-999.0,93,-99.99,,,0.02,weatherlink.com 1.10,2013-01-18 16:01:00,
2013-01-18 11:16:00,35.7,34.0,30.55,NNW,339,0.0,-999.0,93,-99.99,,,0.02,weatherlink.com 1.10,2013-01-18 16:16:00,
2013-01-18 11:31:00,37.3,35.0,30.54,West,269,0.0,-999.0,91,-99.99,,,0.02,weatherlink.com 1.10,2013-01-18 16:31:00,
2013-01-18 11:46:00,38.9,35.0,30.54,ESE,123,4.0,-999.0,84,-99.99,,,0.03,weatherlink.com 1.10,2013-01-18 16:46:00,
2013-01-18 12:01:00,39.9,35.0,30.53,NE,36,3.0,-999.0,83,-99.99,,,0.03,weatherlink.com 1.10,2013-01-18 17:01:00,
2013-01-18 12:16:00,40.2,34.0,30.52,East,98,0.0,-999.0,79,-99.99,,,0.03,weatherlink.com 1.10,2013-01-18 17:16:00,
2013-01-18 12:31:00,41.2,34.0,30.51,East,98,5.0,-999.0,75,-99.99,,,0.03,weatherlink.com 1.10,2013-01-18 17:31:00,
2013-01-18 12:46:00,42.0,34.0,30.50,East,94,0.0,-999.0,74,-99.99,,,0.03,weatherlink.com 1.10,2013-01-18 17:46:00,
2013-01-18 13:01:00,42.9,35.0,30.49,NE,34,1.0,-999.0,74,-99.99,,,0.03,weatherlink.com 1.10,2013-01-18 18:01:00,
2013-01-18 13:16:00,43.4,35.0,30.48,East,86,2.0,-999.0,73,-99.99,,,0.04,weatherlink.com 1.10,2013-01-18 18:16:00,
2013-01-18 13:31:00,44.7,35.0,30.48,ENE,67,0.0,-999.0,70,-99.99,,,0.04,weatherlink.com 1.10,2013-01-18 18:31:00,
2013-01-18 13:46:00,45.5,37.0,30.47,NE,49,6.0,-999.0,71,-99.99,,,0.04,weatherlink.com 1.10,2013-01-18 18:46:00,
2013-01-18 14:01:00,45.9,36.0,30.47,NE,38,5.0,-999.0,69,-99.99,,,0.04,weatherlink.com 1.10,2013-01-18 19:01:00,
2013-01-18 14:16:00,45.8,33.0,30.46,ESE,119,1.0,-999.0,61,-99.99,,,0.05,weatherlink.com 1.10,2013-01-18 19:16:00,
2013-01-18 14:31:00,46.7,34.0,30.46,NNW,340,2.0,-999.0,61,-99.99,,,0.05,weatherlink.com 1.10,2013-01-18 19:31:00,
2013-01-18 14:46:00,47.4,34.0,30.46,East,93,1.0,-999.0,59,-99.99,,,0.05,weatherlink.com 1.10,2013-01-18 19:46:00,
2013-01-18 15:01:00,48.2,33.0,30.46,NNE,22,4.0,-999.0,57,-99.99,,,0.05,weatherlink.com 1.10,2013-01-18 20:01:00,
2013-01-18 15:16:00,49.5,33.0,30.46,NNE,14,2.0,-999.0,54,-99.99,,,0.05,weatherlink.com 1.10,2013-01-18 20:16:00,
2013-01-18 15:31:00,49.7,33.0,30.45,NNE,19,4.0,-999.0,54,-99.99,,,0.06,weatherlink.com 1.10,2013-01-18 20:31:00,
2013-01-18 15:46:00,49.4,31.0,30.45,ESE,114,4.0,-999.0,49,-99.99,,,0.06,weatherlink.com 1.10,2013-01-18 20:46:00,
2013-01-18 16:01:00,49.7,30.0,30.45,East,80,0.0,-999.0,47,-99.99,,,0.06,weatherlink.com 1.10,2013-01-18 21:01:00,
2013-01-18 16:16:00,49.5,29.0,30.44,East,88,0.0,-999.0,46,-99.99,,,0.06,weatherlink.com 1.10,2013-01-18 21:16:00,
2013-01-18 16:31:00,49.7,32.0,30.44,NE,45,2.0,-999.0,51,-99.99,,,0.07,weatherlink.com 1.10,2013-01-18 21:31:00,
2013-01-18 16:46:00,49.6,32.0,30.43,East,81,0.0,-999.0,52,-99.99,,,0.07,weatherlink.com 1.10,2013-01-18 21:46:00,
2013-01-18 17:01:00,49.5,31.0,30.43,ENE,71,0.0,-999.0,49,-99.99,,,0.07,weatherlink.com 1.10,2013-01-18 22:01:00,
2013-01-18 17:16:00,48.8,33.0,30.43,SE,126,1.0,-999.0,54,-99.99,,,0.07,weatherlink.com 1.10,2013-01-18 22:16:00,
2013-01-18 17:31:00,48.4,25.0,30.43,ESE,123,0.0,-999.0,41,-99.99,,,0.00,weatherlink.com 1.10,2013-01-18 22:31:00,
2013-01-18 17:47:00,47.4,28.0,30.43,South,189,0.0,-999.0,48,-99.99,,,0.00,weatherlink.com 1.10,2013-01-18 22:47:00,
2013-01-18 18:02:00,46.3,32.0,30.43,South,189,0.0,-999.0,58,-99.99,,,0.01,weatherlink.com 1.10,2013-01-18 23:02:00,
2013-01-18 18:17:00,45.0,33.0,30.43,South,189,0.0,-999.0,63,-99.99,,,0.01,weatherlink.com 1.10,2013-01-18 23:17:00,
2013-01-18 18:32:00,44.2,33.0,30.43,South,189,0.0,-999.0,66,-99.99,,,0.01,weatherlink.com 1.10,2013-01-18 23:32:00,
2013-01-18 18:47:00,42.8,33.0,30.43,South,189,0.0,-999.0,68,-99.99,,,0.02,weatherlink.com 1.10,2013-01-18 23:47:00,
2013-01-18 19:02:00,40.6,34.0,30.43,South,189,0.0,-999.0,78,-99.99,,,0.02,weatherlink.com 1.10,2013-01-19 00:02:00,
2013-01-18 19:17:00,39.0,34.0,30.43,South,189,0.0,-999.0,83,-99.99,,,0.02,weatherlink.com 1.10,2013-01-19 00:17:00,
2013-01-18 19:32:00,38.0,34.0,30.42,South,189,0.0,-999.0,84,-99.99,,,0.02,weatherlink.com 1.10,2013-01-19 00:32:00,
2013-01-18 19:47:00,37.1,33.0,30.43,South,189,0.0,-999.0,86,-99.99,,,0.02,weatherlink.com 1.10,2013-01-19 00:47:00,
2013-01-18 20:02:00,36.3,33.0,30.43,South,189,0.0,-999.0,87,-99.99,,,0.02,weatherlink.com 1.10,2013-01-19 01:02:00,
2013-01-18 20:17:00,35.4,33.0,30.43,South,189,0.0,-999.0,89,-99.99,,,0.02,weatherlink.com 1.10,2013-01-19 01:17:00,
2013-01-18 20:32:00,35.0,32.0,30.43,South,189,0.0,-999.0,90,-99.99,,,0.02,weatherlink.com 1.10,2013-01-19 01:32:00,
2013-01-18 20:47:00,34.9,32.0,30.42,South,189,0.0,-999.0,90,-99.99,,,0.02,weatherlink.com 1.10,2013-01-19 01:47:00,
2013-01-18 21:02:00,34.1,32.0,30.42,South,189,0.0,-999.0,91,-99.99,,,0.03,weatherlink.com 1.10,2013-01-19 02:02:00,
2013-01-18 21:17:00,33.8,32.0,30.43,South,189,0.0,-999.0,91,-99.99,,,0.03,weatherlink.com 1.10,2013-01-19 02:17:00,
2013-01-18 21:32:00,33.2,31.0,30.42,South,189,0.0,-999.0,91,-99.99,,,0.03,weatherlink.com 1.10,2013-01-19 02:32:00,
2013-01-18 21:47:00,32.9,31.0,30.42,South,189,0.0,-999.0,92,-99.99,,,0.03,weatherlink.com 1.10,2013-01-19 02:47:00,
2013-01-18 22:02:00,32.5,31.0,30.42,South,189,0.0,-999.0,92,-99.99,,,0.03,weatherlink.com 1.10,2013-01-19 03:02:00,
2013-01-18 22:17:00,32.1,30.0,30.41,South,189,0.0,-999.0,92,-99.99,,,0.03,weatherlink.com 1.10,2013-01-19 03:17:00,
2013-01-18 22:32:00,31.8,30.0,30.41,South,189,0.0,-999.0,92,-99.99,,,0.03,weatherlink.com 1.10,2013-01-19 03:32:00,
2013-01-18 22:47:00,31.2,29.0,30.41,South,189,0.0,-999.0,93,-99.99,,,0.03,weatherlink.com 1.10,2013-01-19 03:47:00,
2013-01-18 23:02:00,30.7,29.0,30.40,South,189,0.0,-999.0,93,-99.99,,,0.03,weatherlink.com 1.10,2013-01-19 04:02:00,
2013-01-18 23:17:00,30.8,29.0,30.40,South,189,0.0,-999.0,93,-99.99,,,0.03,weatherlink.com 1.10,2013-01-19 04:17:00,
2013-01-18 23:33:00,30.6,29.0,30.40,South,189,0.0,-999.0,93,-99.99,,,0.03,weatherlink.com 1.10,2013-01-19 04:33:00,
2013-01-18 23:48:00,30.4,29.0,30.40,South,189,0.0,-999.0,93,-99.99,,,0.04,weatherlink.com 1.10,2013-01-19 04:48:00,